KGXY/GXY METAR and TAF weather

Enter ICAO airport designator
Station Type Date Time Source
KGXY METAR 2021/03/07 23:56 UTC NOAA

KGXY 072356Z AUTO 11012KT 10SM CLR 18/M07 A3004 RMK AO2 SLP179 T01831072 10217 20144 55001


Station Type Date Time Source
KGXY Decoded METAR 2021/03/07 23:56 UTC NOAA

Greeley, Greeley-Weld County Airport, CO, United States (KGXY) 40-26N 104-38W
Mar 07, 2021 - 06:56 PM EST / 2021.03.07 2356 UTC
Wind: from the ESE (110 degrees) at 14 MPH (12 KT):0
Visibility: 10 mile(s):0
Sky conditions: clear
Temperature: 64.9 F (18.3 C)
Dew Point: 19.0 F (-7.2 C)
Relative Humidity: 16%
Pressure (altimeter): 30.04 in. Hg (1017 hPa)
Pressure tendency: 0.00 inches (0.1 hPa) lower than three hours ago
ob: KGXY 072356Z AUTO 11012KT 10SM CLR 18/M07 A3004 RMK AO2 SLP179 T01831072 10217 20144 55001
cycle: 0

Station Type Date Time Source
KGXY TAF UTC NOAA

Error!

Example: see airport list